createdAt,value
2018-12-09T00:02:26.021Z,47.90
2018-12-09T00:04:54.340Z,53.30
2018-12-09T00:07:22.460Z,46.77
2018-12-09T00:09:50.660Z,48.93
2018-12-09T00:12:18.878Z,48.83
2018-12-09T00:14:46.830Z,45.33
2018-12-09T00:17:15.024Z,45.43
2018-12-09T00:19:43.245Z,45.00
2018-12-09T00:22:12.560Z,45.97
2018-12-09T00:24:40.805Z,44.13
2018-12-09T00:27:09.001Z,44.63
2018-12-09T00:29:37.248Z,45.37
2018-12-09T00:32:05.441Z,44.70
2018-12-09T00:34:33.676Z,41.13
2018-12-09T00:37:01.987Z,39.77
2018-12-09T00:39:30.279Z,40.53
2018-12-09T00:41:58.502Z,44.97
2018-12-09T00:44:26.819Z,47.03
2018-12-09T00:46:55.241Z,49.63
2018-12-09T00:49:23.563Z,43.77
2018-12-09T00:51:51.781Z,40.90
2018-12-09T00:54:20.033Z,42.80
2018-12-09T00:56:48.270Z,34.23
2018-12-09T00:59:16.469Z,43.40
2018-12-09T01:01:44.712Z,28.93
2018-12-09T01:04:12.924Z,30.27
2018-12-09T01:06:41.144Z,31.30
2018-12-09T01:09:09.261Z,28.27
2018-12-09T01:11:37.540Z,32.77
2018-12-09T01:14:05.784Z,28.30
2018-12-09T01:16:34.008Z,28.40
2018-12-09T01:19:02.300Z,39.43
2018-12-09T01:21:30.221Z,40.47
2018-12-09T01:23:58.368Z,37.30
2018-12-09T01:26:26.909Z,35.50
2018-12-09T01:28:55.233Z,34.20
2018-12-09T01:31:23.512Z,33.93
2018-12-09T01:33:51.757Z,34.30
2018-12-09T01:36:19.969Z,33.30
2018-12-09T01:38:48.193Z,34.13
2018-12-09T01:41:16.430Z,35.63
2018-12-09T01:43:44.630Z,31.40
2018-12-09T01:46:12.846Z,25.87
2018-12-09T01:48:41.055Z,25.93
2018-12-09T01:51:09.305Z,25.07
2018-12-09T01:54:08.590Z,24.47
2018-12-09T01:56:36.833Z,26.77
2018-12-09T01:59:05.132Z,25.03
2018-12-09T02:01:33.368Z,26.57
2018-12-09T02:04:01.619Z,26.80
2018-12-09T02:06:30.293Z,27.47
2018-12-09T02:08:58.597Z,27.00
2018-12-09T02:11:26.832Z,25.30
2018-12-09T02:13:55.157Z,28.97
2018-12-09T02:16:23.372Z,35.17
2018-12-09T02:18:55.708Z,34.87
2018-12-09T02:21:23.957Z,31.93
2018-12-09T02:23:52.170Z,31.87
2018-12-09T02:26:20.396Z,37.87
2018-12-09T02:28:48.887Z,36.30
2018-12-09T02:31:17.153Z,36.20
2018-12-09T02:33:45.343Z,34.33
2018-12-09T02:36:13.587Z,35.80
2018-12-09T02:38:41.868Z,34.87
2018-12-09T02:41:10.115Z,35.23
2018-12-09T02:43:38.412Z,34.57
2018-12-09T02:46:06.835Z,33.37
2018-12-09T02:48:35.094Z,36.97
2018-12-09T02:51:03.620Z,31.57
2018-12-09T02:53:31.844Z,31.90
2018-12-09T02:56:00.041Z,31.93
2018-12-09T02:58:28.365Z,31.40
2018-12-09T03:00:56.580Z,31.33
2018-12-09T03:03:24.871Z,29.73
2018-12-09T03:05:53.193Z,32.53
2018-12-09T03:08:21.515Z,34.73
2018-12-09T03:10:49.776Z,33.33
2018-12-09T03:13:18.400Z,34.40
2018-12-09T03:15:46.604Z,38.33
2018-12-09T03:18:14.895Z,27.03
2018-12-09T03:20:43.147Z,36.27
2018-12-09T03:23:11.377Z,35.70
2018-12-09T03:25:39.590Z,43.07
2018-12-09T03:28:07.826Z,43.07
2018-12-09T03:30:36.043Z,44.17
2018-12-09T03:33:04.269Z,47.83
2018-12-09T03:35:32.476Z,43.33
2018-12-09T03:38:00.702Z,37.60
2018-12-09T03:40:28.909Z,37.60
2018-12-09T03:42:57.110Z,36.83
2018-12-09T03:45:25.356Z,35.20
2018-12-09T03:47:53.556Z,36.23
2018-12-09T03:50:21.779Z,41.50
2018-12-09T03:52:50.010Z,71.60
2018-12-09T03:55:18.223Z,49.97
2018-12-09T03:57:46.445Z,36.00
2018-12-09T04:00:15.235Z,34.80
2018-12-09T04:02:43.193Z,31.97
2018-12-09T04:05:11.420Z,23.63
2018-12-09T04:07:39.643Z,25.67
2018-12-09T04:10:07.856Z,38.93
2018-12-09T04:12:36.435Z,40.27
2018-12-09T04:15:04.655Z,41.53
2018-12-09T04:17:32.977Z,37.57
2018-12-09T04:20:01.217Z,36.93
2018-12-09T04:22:29.467Z,32.23
2018-12-09T04:24:57.680Z,33.27
2018-12-09T04:27:25.905Z,33.07
2018-12-09T04:29:54.121Z,28.43
2018-12-09T04:32:22.340Z,30.10
2018-12-09T04:34:50.514Z,34.60
2018-12-09T04:37:18.582Z,32.93
2018-12-09T04:39:46.808Z,29.90
2018-12-09T04:42:15.013Z,33.20
2018-12-09T04:44:43.296Z,33.53
2018-12-09T04:47:11.864Z,33.83
2018-12-09T04:49:39.984Z,122.57
2018-12-09T04:52:08.198Z,144.03
2018-12-09T04:54:36.501Z,89.87
2018-12-09T04:57:04.728Z,92.10
2018-12-09T04:59:35.089Z,126.60
2018-12-09T05:02:03.276Z,63.27
2018-12-09T05:04:31.564Z,159.73
2018-12-09T05:06:59.885Z,71.50
2018-12-09T05:09:27.843Z,63.63
2018-12-09T05:11:56.124Z,53.67
2018-12-09T05:14:24.389Z,50.83
2018-12-09T05:16:52.714Z,117.33
2018-12-09T05:19:20.986Z,221.93
2018-12-09T05:21:49.305Z,118.97
2018-12-09T05:24:17.577Z,60.10
2018-12-09T05:26:45.845Z,58.20
2018-12-09T05:29:14.092Z,66.47
2018-12-09T05:31:42.320Z,78.70
2018-12-09T05:34:10.905Z,68.47
2018-12-09T05:36:39.228Z,62.83
2018-12-09T05:39:07.692Z,55.17
2018-12-09T05:41:35.921Z,54.23
2018-12-09T05:44:04.001Z,62.30
2018-12-09T05:46:32.516Z,57.37
2018-12-09T05:49:00.754Z,41.37
2018-12-09T05:51:29.049Z,33.87
2018-12-09T05:53:57.317Z,36.80
2018-12-09T05:56:25.532Z,35.53
2018-12-09T05:58:54.156Z,44.13
2018-12-09T06:01:22.354Z,34.73
2018-12-09T06:03:50.551Z,34.90
2018-12-09T06:06:18.800Z,36.83
2018-12-09T06:08:47.006Z,47.57
2018-12-09T06:11:15.229Z,61.80
2018-12-09T06:13:43.464Z,88.40
2018-12-09T06:16:11.476Z,75.37
2018-12-09T06:18:39.711Z,73.63
2018-12-09T06:21:07.937Z,55.23
2018-12-09T06:23:36.210Z,50.80
2018-12-09T06:26:04.472Z,57.57
2018-12-09T06:28:32.429Z,50.23
2018-12-09T06:31:00.617Z,48.93
2018-12-09T06:33:28.788Z,46.07
2018-12-09T06:35:57.109Z,46.83
2018-12-09T06:38:25.440Z,59.00
2018-12-09T06:40:53.782Z,194.80
2018-12-09T06:43:22.009Z,103.60
2018-12-09T06:45:50.236Z,89.70
2018-12-09T06:48:18.451Z,110.13
2018-12-09T06:50:46.665Z,62.83
2018-12-09T06:53:14.884Z,51.33
2018-12-09T06:55:43.173Z,49.33
2018-12-09T06:58:11.436Z,63.87
2018-12-09T07:00:39.710Z,88.60
2018-12-09T07:03:08.084Z,108.03
2018-12-09T07:05:37.256Z,95.60
2018-12-09T07:08:05.474Z,84.70
2018-12-09T07:10:33.742Z,89.33
2018-12-09T07:13:02.317Z,70.87
2018-12-09T07:15:30.637Z,68.17
2018-12-09T07:17:58.898Z,55.87
2018-12-09T07:20:27.025Z,43.07
2018-12-09T07:22:55.112Z,40.20
2018-12-09T07:25:23.416Z,55.50
2018-12-09T07:27:51.736Z,41.80
2018-12-09T07:30:19.981Z,38.93
2018-12-09T07:32:48.225Z,36.13
2018-12-09T07:35:16.170Z,39.30
2018-12-09T07:37:44.665Z,38.00
2018-12-09T07:40:12.881Z,39.87
2018-12-09T07:42:41.103Z,47.87
2018-12-09T07:45:09.325Z,53.73
2018-12-09T07:47:37.529Z,59.90
2018-12-09T07:50:06.335Z,57.70
2018-12-09T07:52:34.569Z,54.23
2018-12-09T07:55:02.861Z,50.97
2018-12-09T07:57:31.104Z,46.77
2018-12-09T07:59:59.333Z,44.10
2018-12-09T08:02:27.570Z,42.10
2018-12-09T08:04:55.763Z,46.83
2018-12-09T08:07:24.005Z,48.97
2018-12-09T08:09:52.220Z,56.53
2018-12-09T08:12:20.600Z,54.40
2018-12-09T08:14:48.824Z,51.17
2018-12-09T08:17:16.985Z,46.27
2018-12-09T08:19:45.255Z,50.10
2018-12-09T08:22:13.425Z,44.77
2018-12-09T08:24:41.732Z,43.60
2018-12-09T08:27:09.949Z,46.43
2018-12-09T08:29:38.184Z,50.50
2018-12-09T08:32:06.461Z,56.67
2018-12-09T08:34:34.780Z,50.40
2018-12-09T08:37:03.024Z,50.90
2018-12-09T08:39:31.257Z,37.47
2018-12-09T08:41:59.341Z,41.13
2018-12-09T08:44:27.560Z,30.87
2018-12-09T08:46:55.879Z,28.80
2018-12-09T08:49:24.199Z,31.13
2018-12-09T08:51:52.461Z,36.93
2018-12-09T08:54:20.393Z,37.10
2018-12-09T08:56:48.603Z,37.53
2018-12-09T08:59:16.928Z,37.87
2018-12-09T09:01:45.144Z,41.73
2018-12-09T09:04:13.357Z,39.43
2018-12-09T09:06:41.484Z,36.20
2018-12-09T09:09:09.908Z,36.43
2018-12-09T09:11:38.179Z,42.27
2018-12-09T09:14:06.347Z,44.90
2018-12-09T09:16:35.009Z,43.57
2018-12-09T09:19:03.415Z,45.80
2018-12-09T09:21:31.780Z,41.33
2018-12-09T09:23:59.997Z,39.03
2018-12-09T09:26:28.275Z,42.60
2018-12-09T09:28:56.544Z,79.13
2018-12-09T09:31:24.917Z,66.10
2018-12-09T09:33:53.284Z,63.23
2018-12-09T09:36:21.504Z,62.97
2018-12-09T09:38:49.777Z,68.27
2018-12-09T09:41:18.098Z,56.00
2018-12-09T09:43:46.236Z,48.03
2018-12-09T09:46:14.465Z,49.13
2018-12-09T09:48:42.756Z,44.43
2018-12-09T09:51:10.901Z,53.63
2018-12-09T09:53:39.121Z,46.73
2018-12-09T09:56:07.337Z,50.90
2018-12-09T09:58:35.480Z,53.17
2018-12-09T10:01:03.562Z,47.37
2018-12-09T10:03:31.805Z,43.93
2018-12-09T10:06:00.040Z,47.43
2018-12-09T10:08:28.318Z,48.23
2018-12-09T10:10:56.455Z,48.10
2018-12-09T10:13:24.384Z,49.17
2018-12-09T10:15:52.603Z,71.80
2018-12-09T10:18:20.831Z,65.10
2018-12-09T10:20:49.045Z,149.97
2018-12-09T10:23:17.335Z,120.27
2018-12-09T10:25:45.561Z,109.60
2018-12-09T10:28:13.829Z,135.97
2018-12-09T10:30:41.994Z,90.03
2018-12-09T10:33:10.416Z,111.23
2018-12-09T10:35:38.641Z,100.57
2018-12-09T10:38:06.956Z,81.70
2018-12-09T10:40:35.082Z,80.67
2018-12-09T10:43:03.216Z,88.50
2018-12-09T10:45:31.465Z,87.33
2018-12-09T10:47:59.741Z,82.40
2018-12-09T10:50:27.997Z,85.87
2018-12-09T10:52:56.225Z,85.17
2018-12-09T10:55:24.498Z,85.07
2018-12-09T10:57:52.745Z,91.23
2018-12-09T11:00:26.128Z,94.47
2018-12-09T11:02:54.295Z,83.57
2018-12-09T11:05:22.540Z,89.43
2018-12-09T11:07:50.816Z,87.03
2018-12-09T11:10:19.045Z,89.77
2018-12-09T11:12:47.274Z,95.17
2018-12-09T11:15:15.529Z,114.97
2018-12-09T11:17:43.741Z,112.03
2018-12-09T11:20:11.949Z,87.80
2018-12-09T11:22:40.236Z,56.60
2018-12-09T11:25:08.487Z,29.30
2018-12-09T11:27:36.697Z,44.80
2018-12-09T11:30:05.340Z,47.63
2018-12-09T11:32:33.617Z,59.20
2018-12-09T11:35:01.878Z,50.13
2018-12-09T11:37:30.081Z,69.87
2018-12-09T11:39:58.478Z,60.77
2018-12-09T11:42:26.645Z,92.80
2018-12-09T11:44:54.917Z,91.93
2018-12-09T11:47:23.229Z,107.13
2018-12-09T11:49:51.505Z,113.87
2018-12-09T11:52:19.710Z,107.33
2018-12-09T11:54:47.848Z,102.40
2018-12-09T11:57:16.673Z,107.07
2018-12-09T11:59:49.055Z,118.07
2018-12-09T12:02:20.170Z,151.70
2018-12-09T12:04:47.348Z,159.97
2018-12-09T12:07:15.569Z,128.70
2018-12-09T12:09:43.842Z,149.07
2018-12-09T12:12:12.162Z,77.40
2018-12-09T12:14:40.382Z,60.07
2018-12-09T12:17:08.648Z,51.63
2018-12-09T12:19:36.927Z,52.03
2018-12-09T12:22:05.242Z,47.47
2018-12-09T12:24:33.664Z,47.73
2018-12-09T12:27:01.883Z,46.00
2018-12-09T12:29:30.104Z,50.77
2018-12-09T12:31:58.323Z,77.50
2018-12-09T12:34:26.473Z,97.43
2018-12-09T12:36:54.709Z,104.37
2018-12-09T12:39:22.921Z,77.67
2018-12-09T12:41:51.203Z,59.60
2018-12-09T12:44:19.283Z,99.47
2018-12-09T12:46:47.542Z,68.90
2018-12-09T12:49:15.774Z,96.67
2018-12-09T12:51:44.037Z,71.07
2018-12-09T12:54:12.302Z,71.73
2018-12-09T12:56:40.575Z,72.03
2018-12-09T12:59:08.844Z,68.53
2018-12-09T13:01:37.113Z,69.20
2018-12-09T13:04:05.332Z,72.57
2018-12-09T13:06:33.850Z,58.73
2018-12-09T13:09:02.160Z,56.07
2018-12-09T13:11:30.445Z,63.07
2018-12-09T13:13:58.712Z,67.60
2018-12-09T13:16:26.985Z,75.53
2018-12-09T13:18:55.152Z,70.77
2018-12-09T13:21:23.478Z,70.23
2018-12-09T13:23:51.782Z,68.57
2018-12-09T13:26:20.268Z,74.30
2018-12-09T13:28:48.633Z,73.17
2018-12-09T13:31:17.052Z,62.70
2018-12-09T13:33:45.273Z,38.57
2018-12-09T13:36:13.468Z,38.90
2018-12-09T13:38:41.724Z,33.03
2018-12-09T13:41:11.221Z,26.90
2018-12-09T13:43:39.653Z,26.87
2018-12-09T13:46:07.981Z,20.20
2018-12-09T13:48:36.100Z,18.87
2018-12-09T13:51:04.309Z,21.13
2018-12-09T13:53:32.567Z,25.13
2018-12-09T13:56:00.806Z,34.93
2018-12-09T13:58:29.157Z,38.10
2018-12-09T14:00:57.514Z,20.33
2018-12-09T14:03:25.509Z,18.27
2018-12-09T14:05:53.873Z,20.67
2018-12-09T14:08:22.085Z,18.60
2018-12-09T14:10:50.389Z,19.23
2018-12-09T14:13:18.677Z,23.20
2018-12-09T14:15:46.929Z,24.20
2018-12-09T14:18:15.161Z,22.93
2018-12-09T14:20:43.538Z,21.93
2018-12-09T14:23:11.857Z,29.47
2018-12-09T14:25:40.119Z,42.67
2018-12-09T14:28:08.411Z,68.70
2018-12-09T14:30:36.651Z,43.50
2018-12-09T14:33:05.039Z,33.67
2018-12-09T14:35:33.288Z,40.50
2018-12-09T14:38:01.527Z,54.63
2018-12-09T14:40:29.799Z,51.63
2018-12-09T14:42:57.921Z,46.27
2018-12-09T14:45:26.203Z,63.47
2018-12-09T14:47:54.409Z,49.90
2018-12-09T14:50:22.781Z,47.93
2018-12-09T14:52:51.030Z,62.03
2018-12-09T14:55:19.268Z,141.47
2018-12-09T14:57:47.490Z,101.13
2018-12-09T15:00:15.812Z,103.50
2018-12-09T15:02:44.005Z,99.73
2018-12-09T15:05:12.245Z,55.17
2018-12-09T15:07:40.525Z,53.83
2018-12-09T15:10:09.110Z,38.80
2018-12-09T15:12:37.510Z,61.30
2018-12-09T15:15:05.873Z,70.10
2018-12-09T15:17:34.102Z,83.27
2018-12-09T15:20:02.423Z,111.23
2018-12-09T15:22:30.642Z,101.63
2018-12-09T15:24:58.965Z,63.53
2018-12-09T15:27:27.217Z,51.20
2018-12-09T15:29:55.439Z,101.07
2018-12-09T15:32:23.677Z,134.37
2018-12-09T15:34:51.890Z,227.37
2018-12-09T15:37:20.088Z,178.87
2018-12-09T15:39:48.334Z,167.20
2018-12-09T15:42:16.604Z,129.83
2018-12-09T15:44:44.924Z,124.20
2018-12-09T15:47:13.072Z,88.93
2018-12-09T15:49:41.365Z,80.10
2018-12-09T15:52:09.633Z,132.10
2018-12-09T15:54:38.111Z,122.10
2018-12-09T15:57:06.478Z,127.00
2018-12-09T15:59:34.748Z,110.23
2018-12-09T16:02:03.004Z,124.53
2018-12-09T16:04:31.232Z,117.13
2018-12-09T16:06:59.505Z,105.50
2018-12-09T16:09:27.626Z,102.17
2018-12-09T16:11:55.849Z,115.20
2018-12-09T16:14:24.413Z,123.17
2018-12-09T16:16:52.825Z,125.73
2018-12-09T16:19:21.057Z,122.10
2018-12-09T16:21:49.327Z,108.33
2018-12-09T16:24:17.592Z,117.87
2018-12-09T16:26:45.813Z,113.80
2018-12-09T16:29:13.768Z,99.10
2018-12-09T16:31:42.008Z,96.37
2018-12-09T16:34:10.173Z,100.90
2018-12-09T16:36:38.385Z,102.63
2018-12-09T16:39:07.122Z,84.63
2018-12-09T16:41:35.338Z,69.93
2018-12-09T16:44:03.708Z,84.13
2018-12-09T16:46:31.973Z,117.07
2018-12-09T16:49:00.169Z,118.37
2018-12-09T16:51:28.413Z,115.37
2018-12-09T16:53:57.341Z,114.43
2018-12-09T16:56:25.550Z,122.30
2018-12-09T16:58:53.817Z,131.37
2018-12-09T17:01:22.097Z,107.87
2018-12-09T17:03:50.292Z,112.63
2018-12-09T17:06:18.592Z,116.60
2018-12-09T17:08:46.721Z,143.17
2018-12-09T17:11:15.034Z,136.77
2018-12-09T17:13:43.282Z,133.57
2018-12-09T17:16:11.543Z,143.83
2018-12-09T17:18:39.739Z,137.33
2018-12-09T17:21:07.924Z,285.77
2018-12-09T17:23:36.167Z,271.03
2018-12-09T17:26:04.452Z,227.57
2018-12-09T17:28:33.225Z,242.67
2018-12-09T17:31:01.441Z,249.27
2018-12-09T17:33:29.660Z,241.03
2018-12-09T17:35:57.939Z,125.53
2018-12-09T17:38:26.256Z,148.87
2018-12-09T17:40:54.501Z,161.07
2018-12-09T17:43:22.795Z,200.83
2018-12-09T17:45:51.115Z,224.87
2018-12-09T17:48:19.335Z,218.33
2018-12-09T17:50:48.117Z,218.67
2018-12-09T17:53:16.318Z,200.07
2018-12-09T17:55:44.549Z,210.47
2018-12-09T17:58:12.764Z,260.33
2018-12-09T18:00:40.975Z,203.20
2018-12-09T18:03:09.196Z,206.53
2018-12-09T18:05:37.878Z,164.90
2018-12-09T18:08:06.151Z,158.77
2018-12-09T18:10:34.419Z,153.37
2018-12-09T18:13:02.676Z,130.57
2018-12-09T18:15:30.959Z,116.00
2018-12-09T18:17:59.279Z,113.77
2018-12-09T18:20:27.801Z,124.90
2018-12-09T18:22:56.122Z,140.03
2018-12-09T18:25:24.347Z,134.67
2018-12-09T18:27:52.580Z,138.50
2018-12-09T18:30:20.842Z,178.77
2018-12-09T18:32:49.048Z,158.43
2018-12-09T18:35:17.552Z,152.33
2018-12-09T18:37:46.577Z,218.23
2018-12-09T18:40:14.913Z,135.17
2018-12-09T18:42:42.881Z,160.23
2018-12-09T18:45:11.209Z,142.83
2018-12-09T18:47:39.423Z,67.97
2018-12-09T18:50:07.648Z,64.83
2018-12-09T18:52:35.882Z,71.60
2018-12-09T18:55:04.285Z,76.27
2018-12-09T18:57:32.453Z,96.40
2018-12-09T19:00:00.725Z,108.07
2018-12-09T19:02:28.981Z,192.20
2018-12-09T19:04:57.201Z,231.20
2018-12-09T19:07:25.425Z,175.87
2018-12-09T19:09:53.633Z,198.80
2018-12-09T19:12:22.074Z,223.60
2018-12-09T19:14:50.302Z,213.47
2018-12-09T19:17:18.567Z,181.97
2018-12-09T19:19:46.922Z,170.83
2018-12-09T19:22:15.171Z,163.27
2018-12-09T19:24:43.373Z,120.83
2018-12-09T19:27:11.585Z,109.10
2018-12-09T19:29:39.801Z,109.87
2018-12-09T19:32:08.087Z,142.47
2018-12-09T19:34:36.235Z,97.97
2018-12-09T19:37:04.493Z,113.73
2018-12-09T19:39:32.710Z,106.40
2018-12-09T19:42:01.021Z,113.50
2018-12-09T19:44:29.289Z,103.90
2018-12-09T19:46:57.541Z,66.53
2018-12-09T19:49:25.772Z,109.73
2018-12-09T19:51:54.001Z,94.10
2018-12-09T19:54:22.209Z,113.57
2018-12-09T19:56:50.433Z,131.00
2018-12-09T19:59:18.659Z,114.10
2018-12-09T20:01:46.928Z,101.83
2018-12-09T20:04:15.189Z,94.07
2018-12-09T20:06:43.417Z,102.27
2018-12-09T20:09:11.621Z,97.45
2018-12-09T20:11:39.836Z,115.33
2018-12-09T20:14:07.826Z,105.70
2018-12-09T20:16:36.147Z,92.70
2018-12-09T20:19:04.400Z,99.77
2018-12-09T20:21:32.688Z,70.97
2018-12-09T20:24:00.931Z,63.97
2018-12-09T20:26:29.150Z,68.97
2018-12-09T20:28:57.448Z,76.33
2018-12-09T20:31:25.918Z,63.00
2018-12-09T20:33:54.218Z,83.22
2018-12-09T20:36:22.456Z,85.22
2018-12-09T20:38:50.729Z,126.38
2018-12-09T20:41:19.002Z,120.90
2018-12-09T20:43:47.265Z,107.75
2018-12-09T20:46:15.591Z,110.48
2018-12-09T20:48:43.842Z,97.37
2018-12-09T20:51:12.146Z,102.45
2018-12-09T20:53:40.387Z,83.42
2018-12-09T20:56:08.625Z,70.70
2018-12-09T20:58:36.837Z,73.30
2018-12-09T21:01:05.156Z,60.50
2018-12-09T21:03:33.361Z,66.22
2018-12-09T21:06:01.572Z,74.03
2018-12-09T21:08:29.701Z,83.90
2018-12-09T21:10:57.992Z,135.90
2018-12-09T21:13:26.224Z,120.60
2018-12-09T21:15:54.451Z,109.70
2018-12-09T21:18:22.801Z,105.32
2018-12-09T21:20:50.897Z,93.33
2018-12-09T21:23:19.129Z,101.85
2018-12-09T21:25:47.358Z,84.13
2018-12-09T21:28:15.631Z,90.45
2018-12-09T21:30:43.897Z,90.30
2018-12-09T21:33:11.971Z,100.33
2018-12-09T21:35:40.191Z,103.30
2018-12-09T21:38:08.444Z,91.57
2018-12-09T21:40:36.678Z,96.45
2018-12-09T21:45:47.018Z,100.62
2018-12-09T21:48:15.339Z,99.17
2018-12-09T21:50:43.660Z,123.38
2018-12-09T21:53:11.982Z,125.20
2018-12-09T22:34:14.959Z,93.42
2018-12-09T22:36:43.171Z,94.70
2018-12-09T22:39:11.409Z,90.10
2018-12-09T22:41:39.629Z,126.40
2018-12-09T22:44:07.901Z,136.00
2018-12-09T22:46:36.153Z,144.50
2018-12-09T22:49:04.377Z,215.50
2018-12-09T22:51:32.520Z,93.58
2018-12-09T22:54:00.728Z,77.70
2018-12-09T22:56:28.813Z,68.22
2018-12-09T22:58:57.057Z,69.32
2018-12-09T23:01:25.261Z,53.42
2018-12-09T23:03:53.659Z,60.33
2018-12-09T23:06:21.979Z,54.33
2018-12-09T23:08:50.404Z,63.08
2018-12-09T23:11:18.541Z,56.28
2018-12-09T23:13:46.839Z,55.03
2018-12-09T23:16:15.061Z,56.68
2018-12-09T23:18:43.316Z,52.90
2018-12-09T23:21:11.529Z,57.50
2018-12-09T23:23:39.921Z,58.40
2018-12-09T23:26:08.191Z,55.80
2018-12-09T23:28:36.410Z,54.00
2018-12-09T23:31:04.680Z,56.40
2018-12-09T23:33:32.948Z,53.40
2018-12-09T23:36:01.169Z,58.05
2018-12-09T23:38:29.389Z,59.95
2018-12-09T23:40:57.662Z,62.93
2018-12-09T23:43:25.928Z,53.25
2018-12-09T23:45:54.131Z,60.05
2018-12-09T23:48:22.352Z,58.63
2018-12-09T23:50:50.593Z,59.95
2018-12-09T23:53:18.860Z,56.83
2018-12-09T23:55:47.081Z,59.95
2018-12-09T23:58:15.349Z,56.08
